Latest Weather Observations for Cloncurry

IDQ60801

Issued at 12:02 am EST Wednesday 1 March 2017 (issued every 30 minutes, with the page automatically refreshed every 10 minutes)

About weather observations | Map of weather stations | Latest weather observations for QLD | Other Formats
Station Details ID: 029141 Name: CLONCURRY AIRPORT Lat: -20.67 Lon: 140.50 Height: 186.0 m
Data from the previous 72 hours. | See also: Recent months at Cloncurry
Date/Time
EST
Temp
°C
App
Temp
°C
Dew
Point
°C
Rel
Hum
%
Delta-T
°C
Wind Press
QNH
hPa
Press
MSL
hPa
Rain since
9am
mm
Dir  Spd
km/h
Gust
km/h
Spd
kts
Gust
kts
28/11:30pm 27.4 28.8 17.8 55 6.1 NNE 7 7 4 4 1010.3 1008.9 0.0
28/11:00pm 27.7 29.5 17.5 53 6.5 NNE 4 9 2 5 1010.5 1009.1 0.0
28/10:30pm 28.5 30.2 18.0 53 6.7 NNE 6 9 3 5 1010.4 1009.0 0.0
28/10:00pm 29.0 29.5 17.5 49 7.3 NNE 11 13 6 7 1010.4 1009.0 0.0
28/09:30pm 29.7 29.3 17.2 47 7.9 NE 15 20 8 11 1010.4 1009.0 0.0
28/09:00pm 30.2 29.8 18.0 48 7.9 NE 17 19 9 10 1010.0 1008.6 0.0
28/08:30pm 32.0 31.2 17.1 41 9.5 ESE 17 20 9 11 1009.7 1008.3 0.0
28/08:00pm 31.5 31.8 17.8 44 8.8 SE 13 19 7 10 1009.4 1008.0 0.0
28/07:30pm 31.6 34.2 17.5 43 9.1 CALM 0 0 0 0 1008.8 1007.3 0.0
28/07:00pm 31.8 33.2 16.5 39 9.7 WSW 4 9 2 5 1008.4 1006.9 0.0
28/06:30pm 32.9 32.0 15.8 35 10.8 WSW 15 22 8 12 1008.1 1006.6 0.0
28/06:00pm 35.0 34.6 15.3 30 12.4 E 11 13 6 7 1007.7 1006.3 0.0
28/05:30pm 35.6 33.7 14.3 28 13.2 NE 17 22 9 12 1007.5 1006.1 0.0
28/05:00pm 36.5 36.8 15.0 27 13.6 N 7 17 4 9 1007.3 1005.9 0.0
28/04:30pm 36.0 36.4 15.2 29 13.1 N 7 19 4 10 1007.4 1006.0 0.0
28/04:00pm 36.4 35.7 14.4 27 13.8 N 11 26 6 14 1007.6 1006.2 0.0
28/03:30pm 37.1 36.4 15.5 27 13.7 NNE 13 26 7 14 1008.0 1006.5 0.0
28/03:00pm 36.7 37.1 15.2 27 13.6 NE 7 15 4 8 1008.3 1006.8 0.0
28/02:30pm 36.2 37.0 15.9 30 12.9 NW 6 11 3 6 1008.8 1007.3 0.0
28/02:00pm 36.0 36.0 15.2 29 13.1 NNW 9 19 5 10 1009.2 1007.8 0.0
28/01:30pm 35.5 35.5 15.3 30 12.7 NW 9 17 5 9 1009.6 1008.2 0.0
28/01:00pm 34.5 35.3 15.9 33 11.8 NNE 6 11 3 6 1010.1 1008.7 0.0
28/12:30pm 34.7 35.0 16.1 33 11.8 NNW 9 19 5 10 1010.3 1008.9 0.0
28/12:00pm 34.2 34.7 17.4 36 10.9 NNE 11 17 6 9 1010.9 1009.5 0.0
28/11:30am 33.3 33.1 15.8 35 11.0 NE 11 20 6 11 1011.2 1009.8 0.0
28/11:00am 32.8 32.8 15.3 34 10.9 NNE 9 15 5 8 1011.3 1009.9 0.0
28/10:30am 32.5 32.0 15.9 36 10.5 NE 13 20 7 11 1011.7 1010.3 0.0
28/10:00am 31.6 30.6 15.5 37 10.1 NE 15 20 8 11 1011.9 1010.5 0.0
28/09:30am 30.9 30.7 17.6 45 8.5 ENE 15 22 8 12 1012.1 1010.7 0.0
28/09:00am 29.4 30.0 17.6 49 7.5 ENE 11 15 6 8 1011.9 1010.5 1.6
28/08:30am 27.9 27.9 18.0 55 6.3 ENE 15 20 8 11 1012.1 1010.7 1.4
28/08:00am 27.0 26.6 18.8 60 5.3 ENE 19 30 10 16 1011.8 1010.4 1.4
28/07:30am 25.9 25.5 18.8 65 4.6 NE 19 24 10 13 1011.5 1010.1 1.4
28/07:00am 24.3 26.1 19.6 75 3.0 SSE 9 11 5 6 1010.9 1009.5 1.4
28/06:30am 24.1 25.8 19.4 75 3.0 S 9 11 5 6 1010.5 1009.1 1.4
28/06:00am 23.6 25.5 18.9 75 3.0 S 7 9 4 5 1010.0 1008.6 1.4
28/05:30am 23.3 25.0 18.6 75 3.0 S 7 9 4 5 1009.9 1008.5 1.4
28/05:00am 23.3 25.2 18.6 75 3.0 S 6 7 3 4 1009.5 1008.1 1.4
28/04:30am 24.0 24.8 18.2 70 3.7 S 11 13 6 7 1009.2 1007.8 1.4
28/04:00am 24.2 24.8 18.6 71 3.6 S 13 19 7 10 1009.1 1007.7 1.4
28/03:30am 24.0 24.6 19.5 76 2.9 SE 15 19 8 10 1009.1 1007.7 1.4
28/03:00am 24.3 26.1 19.6 75 3.0 E 9 9 5 5 1008.9 1007.4 1.4
28/02:30am 24.2 26.7 19.9 77 2.8 E 6 7 3 4 1009.0 1007.6 1.4
28/02:00am 25.2 27.6 19.6 71 3.6 E 6 7 3 4 1009.3 1007.9 1.4
28/01:30am 25.1 27.3 19.2 70 3.8 E 6 13 3 7 1009.4 1008.0 1.4
28/01:00am 25.1 26.4 19.2 70 3.8 E 11 15 6 8 1009.8 1008.4 1.4
28/12:30am 25.6 26.5 18.5 65 4.5 E 11 13 6 7 1010.3 1008.9 1.4
28/12:00am 25.7 26.6 18.4 64 4.7 E 11 13 6 7 1010.1 1008.7 1.4
 
Date/Time
EST
Temp
°C
App
Temp
°C
Dew
Point
°C
Rel
Hum
%
Delta-T
°C
Wind Press
QNH
hPa
Press
MSL
hPa
Rain since
9am
mm
Dir  Spd
km/h
Gust
km/h
Spd
kts
Gust
kts
27/11:30pm 26.1 28.0 19.0 65 4.6 E 7 7 4 4 1010.4 1009.0 1.4
27/11:00pm 27.5 27.7 17.7 55 6.2 E 13 15 7 8 1011.0 1009.6 1.4
27/10:30pm 27.5 27.3 18.5 58 5.8 E 17 22 9 12 1011.0 1009.6 1.4
27/10:00pm 27.2 26.7 19.0 61 5.3 E 20 26 11 14 1010.8 1009.4 1.4
27/09:30pm 26.9 24.6 18.5 60 5.4 ESE 28 35 15 19 1011.1 1009.7 1.4
27/09:00pm 28.0 26.9 19.5 60 5.6 SE 24 43 13 23 1011.4 1010.0 1.4
27/08:30pm 28.1 29.0 19.3 58 5.7 SSE 13 17 7 9 1010.0 1008.6 1.4
27/08:00pm 27.9 28.6 18.9 58 5.8 WSW 13 17 7 9 1009.7 1008.3 1.4
27/07:30pm 28.7 28.5 18.5 54 6.6 SW 17 22 9 12 1009.4 1008.0 1.4
27/07:00pm 28.2 31.9 20.0 61 5.4 CALM 0 0 0 0 1009.3 1007.9 1.4
27/06:30pm 28.3 28.9 18.7 56 6.2 SSW 13 19 7 10 1009.0 1007.6 1.4
27/06:00pm 28.0 27.5 19.2 58 5.7 WSW 20 26 11 14 1008.8 1007.3 1.4
27/05:30pm 28.4 30.1 20.2 61 5.4 WSW 11 19 6 10 1008.9 1007.4 1.4
27/05:00pm 28.5 29.0 18.3 54 6.6 SE 13 20 7 11 1009.0 1007.6 1.4
27/04:36pm 29.9 26.4 18.0 48 7.7 SE 33 52 18 28 1008.9 1007.4 1.4
27/04:31pm 27.6 23.9 19.9 63 5.1 SE 39 57 21 31 1009.0 1007.6 0.8
27/04:30pm 27.9 23.9 20.2 63 5.1 SE 41 57 22 31 1009.0 1007.6 0.6
27/04:16pm 31.1 26.9 16.3 41 9.3 ESE 33 59 18 32 1008.5 1007.0 0.0
27/04:09pm 33.5 31.1 14.5 31 11.8 NE 20 48 11 26 1008.8 1007.3 0.0
27/04:00pm 35.9 34.3 16.1 30 12.7 NE 19 32 10 17 1007.7 1006.3 0.0
27/03:30pm 36.5 35.9 16.6 30 12.8 NNE 15 24 8 13 1007.8 1006.4 0.0
27/03:00pm 36.2 36.5 15.9 30 13.0 N 9 20 5 11 1008.6 1007.1 0.0
27/02:30pm 36.4 36.2 17.5 32 12.3 NNW 15 22 8 12 1008.9 1007.4 0.0
27/02:00pm 35.4 35.2 16.7 33 12.0 N 13 20 7 11 1009.4 1008.0 0.0
27/01:30pm 35.6 36.4 17.3 33 11.9 NW 9 17 5 9 1009.9 1008.5 0.0
27/01:00pm 34.9 34.7 16.7 34 11.7 N 13 22 7 12 1010.4 1009.0 0.0
27/12:30pm 35.3 35.6 18.0 36 11.3 NNW 13 22 7 12 1010.8 1009.4 0.0
27/12:00pm 34.5 34.7 16.8 34 11.4 N 11 19 6 10 1011.3 1009.9 0.0
27/11:30am 34.0 33.3 15.5 33 11.6 NNE 13 19 7 10 1011.7 1010.3 0.0
27/11:00am 34.0 35.1 17.2 36 10.8 E 7 13 4 7 1011.9 1010.5 0.0
27/10:30am 32.9 34.0 17.1 39 10.1 ENE 7 15 4 8 1012.0 1010.6 0.0
27/10:00am 31.9 31.8 17.8 43 9.1 ENE 15 20 8 11 1012.3 1010.9 0.0
27/09:30am 31.6 31.0 17.5 43 9.1 ENE 17 22 9 12 1012.4 1011.0 0.0
27/09:00am 31.2 31.5 17.9 45 8.6 E 13 19 7 10 1012.3 1010.9 0.0
27/08:30am 29.6 30.9 18.4 51 7.2 N 9 13 5 7 1012.1 1010.7 0.0
27/08:00am 26.7 29.4 20.3 68 4.2 N 6 9 3 5 1012.0 1010.6 0.0
27/07:30am 26.5 28.9 20.1 68 4.2 N 7 11 4 6 1011.5 1010.1 0.0
27/07:00am 24.9 27.2 19.5 72 3.5 SSW 6 19 3 10 1011.2 1009.8 0.0
27/06:30am 25.3 27.8 19.9 72 3.5 SSW 6 7 3 4 1010.6 1009.2 0.0
27/06:00am 25.3 27.8 19.9 72 3.5 SSW 6 7 3 4 1010.1 1008.7 0.0
27/05:30am 24.8 28.6 20.1 75 3.1 CALM 0 0 0 0 1009.6 1008.2 0.0
27/05:00am 25.2 27.4 19.6 71 3.6 SSW 7 9 4 5 1009.3 1007.9 0.0
27/04:30am 25.6 28.5 19.9 70 3.7 SSW 4 6 2 3 1009.2 1007.8 0.0
27/04:00am 25.4 27.4 20.0 72 3.5 SSW 9 11 5 6 1009.0 1007.6 0.0
27/03:30am 25.7 26.9 20.0 71 3.7 SSW 13 19 7 10 1009.1 1007.7 0.0
27/03:00am 25.4 27.9 21.1 77 2.9 SSW 9 11 5 6 1009.1 1007.7 0.0
27/02:30am 25.7 28.7 20.9 75 3.2 SSW 6 7 3 4 1009.2 1007.8 0.0
27/02:00am 26.5 29.8 21.5 74 3.4 SSW 6 7 3 4 1009.3 1007.9 0.0
27/01:30am 26.7 31.2 21.5 73 3.5 CALM 0 0 0 0 1009.6 1008.2 0.0
27/01:00am 26.5 30.6 20.8 71 3.8 CALM 0 0 0 0 1009.9 1008.5 0.0
27/12:30am 27.1 29.4 20.7 68 4.2 SSW 9 11 5 6 1010.2 1008.8 0.0
27/12:00am 27.5 31.0 20.3 65 4.8 SSW 2 7 1 4 1010.2 1008.8 0.0
 
Date/Time
EST
Temp
°C
App
Temp
°C
Dew
Point
°C
Rel
Hum
%
Delta-T
°C
Wind Press
QNH
hPa
Press
MSL
hPa
Rain since
9am
mm
Dir  Spd
km/h
Gust
km/h
Spd
kts
Gust
kts
26/11:30pm 27.2 29.2 20.0 64 4.7 SSW 9 9 5 5 1010.0 1008.6 0.0
26/11:00pm 28.4 30.4 19.9 60 5.6 SSW 9 13 5 7 1010.0 1008.6 0.0
26/10:30pm 29.6 31.6 18.7 52 7.1 SSW 6 7 3 4 1010.0 1008.6 0.0
26/10:00pm 29.6 32.2 19.3 54 6.8 SSW 4 9 2 5 1010.2 1008.8 0.0
26/09:30pm 29.3 31.5 20.5 59 5.9 NE 9 13 5 7 1009.9 1008.5 0.0
26/09:00pm 30.9 33.9 19.3 50 7.6 NE 2 6 1 3 1009.3 1007.9 0.0
26/08:30pm 32.0 33.7 18.6 45 8.8 NE 7 9 4 5 1008.9 1007.4 0.0
26/08:00pm 32.0 33.4 18.6 45 8.8 NE 9 11 5 6 1008.6 1007.1 0.0
26/07:30pm 32.4 32.9 17.5 41 9.6 NE 11 13 6 7 1008.6 1007.1 0.0
26/07:00pm 33.7 33.5 16.6 36 10.9 NE 13 17 7 9 1008.3 1006.8 0.0
26/06:30pm 34.4 33.4 16.7 34 11.3 NNE 17 20 9 11 1007.8 1006.4 0.0
26/06:00pm 34.8 34.2 16.6 33 11.7 NE 15 20 8 11 1007.6 1006.2 0.0
26/05:30pm 35.1 34.0 16.4 32 12.0 NE 17 24 9 13 1007.6 1006.2 0.0
26/05:00pm 35.4 34.4 16.7 33 12.0 NE 17 24 9 13 1007.5 1006.1 0.0
26/04:30pm 35.6 34.7 16.8 32 12.1 NE 17 24 9 13 1007.7 1006.3 0.0
26/04:00pm 35.8 36.1 17.9 34 11.7 ENE 13 26 7 14 1007.7 1006.3 0.0
26/03:30pm 36.0 36.4 17.2 33 12.2 NE 11 20 6 11 1008.0 1006.5 0.0
26/03:00pm 35.2 35.1 17.0 34 11.8 N 13 20 7 11 1008.3 1006.8 0.0
26/02:30pm 35.4 35.7 18.0 35 11.4 NNE 13 22 7 12 1008.6 1007.1 0.0
26/02:00pm 35.3 36.2 18.4 37 11.1 NNE 11 24 6 13 1008.8 1007.3 0.0
26/01:30pm 34.6 35.2 18.6 38 10.5 NNE 13 26 7 14 1009.2 1007.8 0.0
26/01:00pm 34.1 35.2 19.7 42 9.6 N 13 22 7 12 1009.6 1008.2 0.0
26/12:30pm 33.9 35.7 20.3 45 9.1 N 11 19 6 10 1010.1 1008.7 0.0
26/12:00pm 32.8 34.5 21.0 50 8.0 N 13 24 7 13 1010.4 1009.0 0.0
26/11:30am 32.4 35.2 21.6 53 7.4 N 9 15 5 8 1010.8 1009.4 0.0
26/11:00am 32.1 34.5 22.2 56 6.8 NNE 13 20 7 11 1011.0 1009.6 0.0
26/10:30am 31.3 33.1 21.8 57 6.5 NNE 15 20 8 11 1011.4 1010.0 0.0
26/10:00am 30.4 32.3 22.0 60 5.7 N 15 20 8 11 1011.3 1009.9 0.0
26/09:30am 29.9 31.2 22.3 63 5.2 N 19 24 10 13 1011.3 1009.9 0.0
26/09:00am 29.2 30.1 21.9 64 5.0 N 20 24 11 13 1011.2 1009.8 0.0
26/08:30am 28.7 29.5 20.7 62 5.3 N 17 22 9 12 1011.0 1009.6 0.0
26/08:00am 27.3 27.9 21.1 69 4.1 NE 19 22 10 12 1011.0 1009.6 0.0
26/07:30am 25.8 27.9 21.0 75 3.2 ENE 11 22 6 12 1010.7 1009.3 0.0
26/07:00am 24.0 26.3 19.9 78 2.7 ESE 7 9 4 5 1009.8 1008.4 0.0
26/06:30am 23.9 26.6 20.2 80 2.4 ESE 6 7 3 4 1009.4 1008.0 0.0
26/06:00am 23.9 26.2 20.6 82 2.2 ESE 9 9 5 5 1009.1 1007.7 0.0
26/05:30am 24.1 27.1 20.8 82 2.2 ESE 6 7 3 4 1009.1 1007.7 0.0
26/05:00am 24.7 27.8 21.4 82 2.2 ESE 7 9 4 5 1008.9 1007.4 0.0
26/04:30am 24.7 27.9 21.6 83 2.1 ESE 7 9 4 5 1008.6 1007.1 0.0
26/04:00am 24.8 28.1 21.9 84 1.9 ESE 7 9 4 5 1008.3 1006.8 0.0
26/03:30am 25.0 28.5 22.1 84 2.0 ESE 7 9 4 5 1008.2 1006.7 0.0
26/03:00am 25.1 28.5 22.0 83 2.1 ESE 7 9 4 5 1008.3 1006.8 0.0
26/02:30am 25.4 30.3 22.3 83 2.1 CALM 0 0 0 0 1008.5 1007.0 0.0
26/02:00am 25.5 30.2 22.0 81 2.4 CALM 0 0 0 0 1008.6 1007.1 0.0
26/01:30am 25.8 30.5 21.9 79 2.6 CALM 0 0 0 0 1008.9 1007.4 0.0
26/01:00am 26.6 30.3 22.2 77 3.0 ESE 6 7 3 4 1009.1 1007.7 0.0
26/12:30am 26.8 31.5 22.0 75 3.2 CALM 0 0 0 0 1009.4 1008.0 0.0

Other Formats:

Comma delimited format used in spreadsheet applications
http://www.bom.gov.au/fwo/IDQ60801/IDQ60801.94335.axf

JavaScript Object Notation format (JSON) in row-major order
http://www.bom.gov.au/fwo/IDQ60801/IDQ60801.94335.json